»·PEaware :: WAT234 KBFL-KCMA

WAT234 :: KBFL-KCMA

FLIGHT INFORMATION

Flight Status: Arrived
Operator:
Walker Air Transport
More flights by this operator :: More flights under this callsign
Pilot: Eduardo Elias G. (24838)
Aircraft: CIRRUS SR-22
(SR22)
More flights by this aircraft type
Origin: KBFL Meadows
United States
Destination: KCMA Camarillo
United States
More flights between these airports :: More routes between these airports
Route: GMN SESPE
File this flight plan on PilotEdge
Remarks:
Altitude:
(Current/Filed)
11,000ft
Speed:
(Current/Filed)
160kts
Departed: 23-Sep-20 08:09 PM
Arrived: 23-Sep-20 08:50 PM
Distance/Time
Traveled:
73nm/0:40
Distance/Time
To Go:
Arrived

Flight Plot

Page will automatically refresh every two minutes.

Flight plan parsing failed; only flown route is shown


Map Options




Map Legend


Flown Route
Filed Route
Departure Airport
Arrival Airport
Navaid (VOR, NDB)
Fix

Horizontal Profiles

Position Reports

Time Latitude Longitude Heading Altitude Ground
Speed
23-Sep-20 19:42 35.429662 -119.046619 136 498ft 0kts
23-Sep-20 19:43 35.429662 -119.046619 136 498ft 0kts
23-Sep-20 19:44 35.429662 -119.046619 136 498ft 0kts
23-Sep-20 19:45 35.429662 -119.046619 136 498ft 0kts
23-Sep-20 19:46 35.429662 -119.046619 136 498ft 0kts
23-Sep-20 19:47 35.429662 -119.046619 136 498ft 0kts
23-Sep-20 19:48 35.429662 -119.046619 136 498ft 0kts
23-Sep-20 19:49 35.429662 -119.046619 136 498ft 0kts
23-Sep-20 19:50 35.429662 -119.046619 136 498ft 0kts
23-Sep-20 19:51 35.429662 -119.046619 136 498ft 0kts
23-Sep-20 19:52 35.429662 -119.046619 136 498ft 0kts
23-Sep-20 19:53 35.429662 -119.046619 136 498ft 0kts
23-Sep-20 19:54 35.429662 -119.046619 136 498ft 0kts
23-Sep-20 19:55 35.429662 -119.046619 136 498ft 0kts
23-Sep-20 19:56 35.429662 -119.046619 136 498ft 0kts
23-Sep-20 19:57 35.429662 -119.046619 136 498ft 0kts
23-Sep-20 19:58 35.429662 -119.046619 136 498ft 0kts
23-Sep-20 19:59 35.429662 -119.046619 136 498ft 0kts
23-Sep-20 20:00 35.429662 -119.046619 136 498ft 0kts
23-Sep-20 20:01 35.429662 -119.046619 136 498ft 0kts
23-Sep-20 20:02 35.429661 -119.046618 136 498ft 0kts
23-Sep-20 20:03 35.429652 -119.046606 132 498ft 1kts
23-Sep-20 20:04 35.428271 -119.047176 157 498ft 6kts
23-Sep-20 20:05 35.426984 -119.045648 136 498ft 14kts
23-Sep-20 20:06 35.425833 -119.045020 225 498ft 0kts
23-Sep-20 20:07 35.425368 -119.045645 254 498ft 11kts
23-Sep-20 20:08 35.439971 -119.065092 314 936ft 127kts
23-Sep-20 20:09 35.463637 -119.097241 316 2290ft 125kts
23-Sep-20 20:10 35.486973 -119.128094 314 3526ft 123kts
23-Sep-20 20:11 35.509908 -119.159583 314 4563ft 124kts
23-Sep-20 20:12 35.530868 -119.192908 268 5556ft 130kts
23-Sep-20 20:13 35.501683 -119.194430 160 6512ft 140kts
23-Sep-20 20:15 35.465240 -119.177641 159 7399ft 141kts
23-Sep-20 20:16 35.428086 -119.159889 159 8023ft 156kts
23-Sep-20 20:17 35.384250 -119.138800 159 8012ft 175kts
23-Sep-20 20:18 35.344006 -119.119378 159 9061ft 135kts
23-Sep-20 20:19 35.308724 -119.102421 159 9862ft 136kts
23-Sep-20 20:20 35.272816 -119.085155 158 10630ft 137kts
23-Sep-20 20:21 35.235766 -119.067366 158 11013ft 156kts
23-Sep-20 20:22 35.192881 -119.046797 158 11002ft 170kts
23-Sep-20 20:23 35.148468 -119.025517 158 11000ft 172kts
23-Sep-20 20:24 35.103761 -119.004115 158 10999ft 172kts
23-Sep-20 20:25 35.059079 -118.982755 158 10999ft 172kts
23-Sep-20 20:26 35.014402 -118.961420 158 10999ft 172kts
23-Sep-20 20:27 34.969887 -118.940184 158 10999ft 171kts
23-Sep-20 20:28 34.925356 -118.918980 158 10999ft 171kts
23-Sep-20 20:29 34.880831 -118.897776 158 10999ft 171kts
23-Sep-20 20:30 34.836432 -118.876670 158 10989ft 171kts
23-Sep-20 20:31 34.791323 -118.859219 171 11023ft 171kts
23-Sep-20 20:31 34.751982 -118.852722 171 11011ft 171kts
23-Sep-20 20:32 34.704782 -118.844962 171 10999ft 171kts
23-Sep-20 20:34 34.649906 -118.835962 171 11000ft 170kts
23-Sep-20 20:34 34.610802 -118.829573 171 11001ft 170kts
23-Sep-20 20:35 34.564004 -118.821911 171 10999ft 169kts
23-Sep-20 20:37 34.510062 -118.813088 171 10995ft 161kts
23-Sep-20 20:37 34.473747 -118.807153 171 10996ft 155kts
23-Sep-20 20:38 34.429088 -118.799864 172 10167ft 165kts
23-Sep-20 20:39 34.385108 -118.792700 172 9145ft 150kts
23-Sep-20 20:40 34.345106 -118.786165 172 8131ft 148kts
23-Sep-20 20:41 34.313123 -118.811171 247 7164ft 161kts
23-Sep-20 20:42 34.296694 -118.857983 248 6137ft 146kts
23-Sep-20 20:43 34.278065 -118.901412 234 5042ft 151kts
23-Sep-20 20:44 34.251939 -118.940857 236 3835ft 146kts
23-Sep-20 20:45 34.229429 -118.981001 245 2604ft 143kts
23-Sep-20 20:46 34.215793 -119.016411 253 1616ft 94kts
23-Sep-20 20:47 34.213187 -119.047161 271 787ft 92kts
23-Sep-20 20:48 34.213591 -119.078367 271 187ft 91kts
23-Sep-20 20:49 34.213025 -119.095558 198 77ft 9kts
23-Sep-20 20:50 34.211799 -119.095591 155 77ft 9kts
23-Sep-20 20:51 34.210754 -119.093328 13 77ft 0kts
23-Sep-20 20:52 34.210778 -119.093324 0 77ft 0kts
23-Sep-20 20:53 34.210778 -119.093324 0 77ft 0kts
23-Sep-20 20:54 34.210778 -119.093324 0 77ft 0kts
23-Sep-20 20:55 34.210778 -119.093324 0 77ft 0kts
23-Sep-20 20:56 34.210778 -119.093324 0 77ft 0kts
23-Sep-20 20:57 34.210778 -119.093324 0 77ft 0kts
23-Sep-20 20:58 34.210778 -119.093324 0 77ft 0kts
23-Sep-20 20:59 34.210778 -119.093324 0 77ft 0kts
23-Sep-20 21:00 34.210778 -119.093324 0 77ft 0kts
23-Sep-20 21:01 34.210778 -119.093324 0 77ft 0kts
23-Sep-20 21:02 34.210778 -119.093324 0 77ft 0kts
23-Sep-20 21:03 34.210778 -119.093324 0 77ft 0kts

Navigation Log

Ident Type
Flight plan parsing failed, navigation log unavailable